Time;durP1;ratioP1;P1;durP2;ratioP2;P2;SDS_P1;SDS_P2;PMS_P1;PMS_P2;Temp;Humidity;BMP_temperature;BMP_pressure;BME280_temperature;BME280_humidity;BME280_pressure;Samples;Min_cycle;Max_cycle;Signal;HPM_P1;HPM_P2
2022/08/21 00:00:39;;;;;;;5.20;1.80;;;;;;;;;;5064260;28;20045;-68
2022/08/21 00:03:08;;;;;;;2.80;2.20;;;;;;;;;;5048178;28;20122;-68
2022/08/21 00:05:38;;;;;;;4.38;1.92;;;;;;;;;;5048565;28;20414;-68
2022/08/21 00:08:04;;;;;;;3.67;2.05;;;;;;;;;;5068339;28;20037;-67
2022/08/21 00:10:30;;;;;;;1.80;1.70;;;;;;;;;;5072545;28;20044;-67
2022/08/21 00:12:56;;;;;;;2.10;1.90;;;;;;;;;;5070396;28;20044;-68
2022/08/21 00:15:26;;;;;;;4.70;2.05;;;;;;;;;;5068810;28;20048;-68
2022/08/21 00:17:52;;;;;;;3.80;1.98;;;;;;;;;;5068553;28;20044;-68
2022/08/21 00:20:18;;;;;;;2.55;1.90;;;;;;;;;;5070898;28;20410;-68
2022/08/21 00:22:45;;;;;;;2.08;1.90;;;;;;;;;;5071523;28;20180;-68
2022/08/21 00:25:11;;;;;;;2.40;1.70;;;;;;;;;;5072309;28;20060;-67
2022/08/21 00:27:36;;;;;;;2.53;1.98;;;;;;;;;;5058967;28;20383;-67
2022/08/21 00:30:03;;;;;;;1.90;1.77;;;;;;;;;;5070043;28;20158;-68
2022/08/21 00:32:29;;;;;;;3.15;1.80;;;;;;;;;;5032004;28;20049;-68
2022/08/21 00:34:55;;;;;;;2.10;1.90;;;;;;;;;;5031636;28;20045;-68
2022/08/21 00:37:21;;;;;;;7.50;1.77;;;;;;;;;;5032196;28;20048;-68
2022/08/21 00:39:47;;;;;;;1.63;1.38;;;;;;;;;;5055148;28;20059;-68
2022/08/21 00:42:16;;;;;;;2.42;1.88;;;;;;;;;;5071005;28;20080;-68
2022/08/21 00:44:46;;;;;;;3.75;1.75;;;;;;;;;;5071380;28;20410;-68
2022/08/21 00:47:11;;;;;;;5.07;1.55;;;;;;;;;;5054057;28;20045;-68
2022/08/21 00:49:38;;;;;;;3.33;1.58;;;;;;;;;;5057422;28;20050;-68
2022/08/21 00:52:06;;;;;;;1.73;1.58;;;;;;;;;;5071275;28;20059;-67
2022/08/21 00:54:32;;;;;;;2.90;1.75;;;;;;;;;;5071865;28;20056;-68
2022/08/21 00:57:01;;;;;;;3.55;1.67;;;;;;;;;;5071013;28;20048;-68
2022/08/21 00:59:30;;;;;;;1.80;1.70;;;;;;;;;;5067717;28;20057;-67
2022/08/21 01:01:55;;;;;;;2.50;1.40;;;;;;;;;;5059307;28;20147;-68
2022/08/21 01:04:22;;;;;;;1.70;1.50;;;;;;;;;;5051420;28;20127;-67
2022/08/21 01:06:47;;;;;;;2.10;1.75;;;;;;;;;;5050914;28;20047;-68
2022/08/21 01:09:17;;;;;;;4.50;1.80;;;;;;;;;;5051525;28;20111;-67
2022/08/21 01:11:43;;;;;;;2.53;1.45;;;;;;;;;;5057397;28;20040;-68
2022/08/21 01:14:11;;;;;;;3.83;1.58;;;;;;;;;;5071353;28;20067;-68
2022/08/21 01:16:39;;;;;;;3.35;1.80;;;;;;;;;;5045500;28;20061;-68
2022/08/21 01:19:06;;;;;;;3.50;1.80;;;;;;;;;;5029971;28;20511;-67
2022/08/21 01:21:31;;;;;;;3.65;1.70;;;;;;;;;;5033848;28;20041;-68
2022/08/21 01:23:57;;;;;;;3.40;1.60;;;;;;;;;;5059888;28;20052;-68
2022/08/21 01:26:27;;;;;;;1.50;1.40;;;;;;;;;;5070988;28;20071;-68
2022/08/21 01:29:03;;;;;;;3.47;1.55;;;;;;;;;;5070604;28;20036;-68
2022/08/21 01:31:28;;;;;;;2.05;1.60;;;;;;;;;;5047934;28;20060;-68
2022/08/21 01:33:55;;;;;;;4.72;1.70;;;;;;;;;;5054032;28;20044;-68
2022/08/21 01:36:21;;;;;;;3.60;1.60;;;;;;;;;;5070871;28;20055;-67
2022/08/21 01:38:47;;;;;;;3.03;1.60;;;;;;;;;;5070108;28;20040;-68
2022/08/21 01:41:14;;;;;;;1.30;1.25;;;;;;;;;;5051303;28;20120;-68
2022/08/21 01:43:40;;;;;;;1.50;1.40;;;;;;;;;;5051544;28;20098;-68
2022/08/21 01:46:06;;;;;;;3.50;1.42;;;;;;;;;;5060338;28;20048;-68
2022/08/21 01:48:31;;;;;;;4.78;1.50;;;;;;;;;;5050784;28;20052;-68
2022/08/21 01:50:57;;;;;;;1.77;1.27;;;;;;;;;;5049460;28;20102;-68
2022/08/21 01:53:22;;;;;;;2.40;1.48;;;;;;;;;;5050400;28;20132;-68
2022/08/21 01:55:48;;;;;;;4.47;1.48;;;;;;;;;;5057556;28;20422;-68
2022/08/21 01:58:13;;;;;;;1.88;1.67;;;;;;;;;;5070220;28;20071;-68
2022/08/21 02:00:38;;;;;;;2.17;1.40;;;;;;;;;;5060739;28;20068;-68
2022/08/21 02:03:04;;;;;;;1.52;1.33;;;;;;;;;;5029794;28;20045;-68
2022/08/21 02:05:30;;;;;;;1.63;1.52;;;;;;;;;;5033464;28;20046;-68
2022/08/21 02:07:56;;;;;;;1.10;1.10;;;;;;;;;;5067230;28;20533;-68
2022/08/21 02:10:26;;;;;;;4.30;1.20;;;;;;;;;;5070243;28;20072;-68
2022/08/21 02:12:52;;;;;;;1.10;1.10;;;;;;;;;;5069622;28;20115;-67
2022/08/21 02:15:18;;;;;;;1.77;1.50;;;;;;;;;;5067854;28;20087;-68
2022/08/21 02:17:47;;;;;;;1.90;1.40;;;;;;;;;;5056529;28;20048;-68
2022/08/21 02:20:18;;;;;;;1.70;1.60;;;;;;;;;;5069849;28;20050;-68
2022/08/21 02:22:44;;;;;;;2.17;1.25;;;;;;;;;;5069344;28;20040;-68
2022/08/21 02:25:09;;;;;;;2.72;1.45;;;;;;;;;;5070272;28;20097;-68
2022/08/21 02:27:40;;;;;;;1.58;1.48;;;;;;;;;;5065258;28;20586;-67
2022/08/21 02:30:07;;;;;;;2.10;1.70;;;;;;;;;;5059067;28;20048;-68
2022/08/21 02:32:32;;;;;;;1.90;1.58;;;;;;;;;;5028336;28;20076;-68
2022/08/21 02:34:58;;;;;;;1.38;1.27;;;;;;;;;;5029378;28;20111;-68
2022/08/21 02:37:24;;;;;;;4.10;2.15;;;;;;;;;;5029958;28;20041;-68
2022/08/21 02:39:49;;;;;;;1.60;1.50;;;;;;;;;;5043222;28;20052;-68
2022/08/21 02:42:15;;;;;;;4.13;1.70;;;;;;;;;;5069035;28;20053;-68
2022/08/21 02:44:41;;;;;;;1.50;1.40;;;;;;;;;;5069156;28;20044;-68
2022/08/21 02:47:06;;;;;;;1.45;1.35;;;;;;;;;;5035964;28;20056;-68
2022/08/21 02:49:32;;;;;;;1.45;1.35;;;;;;;;;;5032833;28;20507;-68
2022/08/21 02:51:57;;;;;;;4.43;1.50;;;;;;;;;;5058350;28;20151;-68
2022/08/21 02:54:23;;;;;;;1.65;1.55;;;;;;;;;;5069906;28;20053;-68
2022/08/21 02:56:48;;;;;;;2.35;2.00;;;;;;;;;;5069005;28;20047;-68
2022/08/21 02:59:15;;;;;;;6.72;1.63;;;;;;;;;;5069308;28;20576;-68
2022/08/21 03:01:41;;;;;;;4.40;1.52;;;;;;;;;;5061472;28;20056;-68
2022/08/21 03:04:07;;;;;;;4.40;1.50;;;;;;;;;;5069415;28;20044;-67
2022/08/21 03:06:33;;;;;;;1.77;1.63;;;;;;;;;;5069668;28;20075;-68
2022/08/21 03:08:59;;;;;;;4.80;1.70;;;;;;;;;;5068954;28;20033;-68
2022/08/21 03:11:26;;;;;;;2.13;1.60;;;;;;;;;;5066162;28;20045;-68
2022/08/21 03:13:51;;;;;;;2.65;1.65;;;;;;;;;;5065430;28;20048;-68
2022/08/21 03:16:18;;;;;;;1.85;1.48;;;;;;;;;;5048864;28;20741;-67
2022/08/21 03:18:44;;;;;;;3.72;1.52;;;;;;;;;;5028963;28;20121;-68
2022/08/21 03:21:09;;;;;;;2.15;1.95;;;;;;;;;;5029644;28;20132;-68
2022/08/21 03:23:35;;;;;;;3.75;1.73;;;;;;;;;;5046609;28;20029;-67
2022/08/21 03:26:00;;;;;;;2.03;1.60;;;;;;;;;;5069152;28;20048;-68
2022/08/21 03:28:26;;;;;;;2.72;1.70;;;;;;;;;;5069304;28;20048;-68
2022/08/21 03:30:52;;;;;;;3.30;1.73;;;;;;;;;;5062098;28;20106;-68
2022/08/21 03:33:18;;;;;;;1.70;1.60;;;;;;;;;;5048607;28;20045;-67
2022/08/21 03:35:46;;;;;;;3.08;1.85;;;;;;;;;;5064596;28;20048;-67
2022/08/21 03:38:14;;;;;;;2.72;1.75;;;;;;;;;;5069029;28;20447;-68
2022/08/21 03:40:42;;;;;;;2.28;1.60;;;;;;;;;;5056803;28;20140;-68
2022/08/21 03:43:09;;;;;;;1.95;1.85;;;;;;;;;;5066824;28;20437;-68
2022/08/21 03:45:35;;;;;;;1.80;1.70;;;;;;;;;;5057183;28;20523;-68
2022/08/21 03:48:03;;;;;;;2.40;1.83;;;;;;;;;;5059844;28;20053;-67
2022/08/21 03:50:34;;;;;;;1.65;1.55;;;;;;;;;;5073157;28;20055;-68
2022/08/21 03:53:00;;;;;;;1.90;1.80;;;;;;;;;;5071969;28;20048;-67
2022/08/21 03:55:26;;;;;;;1.70;1.45;;;;;;;;;;5062351;28;20048;-68
2022/08/21 03:57:52;;;;;;;3.45;1.65;;;;;;;;;;5057550;28;20135;-68
2022/08/21 04:00:20;;;;;;;5.32;1.92;;;;;;;;;;5054065;28;20064;-68
2022/08/21 04:02:47;;;;;;;4.35;1.80;;;;;;;;;;5051987;28;20044;-68
2022/08/21 04:05:13;;;;;;;3.15;1.65;;;;;;;;;;5053008;28;20139;-68
2022/08/21 04:07:39;;;;;;;9.50;2.03;;;;;;;;;;5050788;28;20070;-68
2022/08/21 04:10:06;;;;;;;4.75;1.83;;;;;;;;;;5072237;28;20052;-68
2022/08/21 04:12:32;;;;;;;4.22;1.80;;;;;;;;;;5072201;28;20040;-68
2022/08/21 04:14:58;;;;;;;3.45;1.70;;;;;;;;;;5071884;28;20506;-68
2022/08/21 04:17:23;;;;;;;6.47;1.67;;;;;;;;;;5051980;28;20506;-68
2022/08/21 04:19:49;;;;;;;1.75;1.65;;;;;;;;;;5059823;28;20132;-68
2022/08/21 04:22:15;;;;;;;4.13;1.60;;;;;;;;;;5032929;28;20045;-68
2022/08/21 04:24:41;;;;;;;2.17;1.80;;;;;;;;;;5032329;28;20069;-68
2022/08/21 04:27:06;;;;;;;5.18;2.45;;;;;;;;;;5031770;28;20041;-68
2022/08/21 04:29:31;;;;;;;4.63;2.00;;;;;;;;;;5048368;28;20387;-68
2022/08/21 04:31:57;;;;;;;2.55;1.77;;;;;;;;;;5064956;28;20037;-68
2022/08/21 04:34:22;;;;;;;2.42;1.95;;;;;;;;;;5072090;28;20060;-67
2022/08/21 04:36:48;;;;;;;2.08;1.70;;;;;;;;;;5071556;28;20036;-68
2022/08/21 04:39:13;;;;;;;3.38;1.90;;;;;;;;;;5070119;28;20052;-69
2022/08/21 04:41:39;;;;;;;2.53;2.15;;;;;;;;;;5057987;28;20129;-69
2022/08/21 04:44:04;;;;;;;2.55;1.65;;;;;;;;;;5071564;28;20383;-69
2022/08/21 04:46:30;;;;;;;3.08;2.00;;;;;;;;;;5059901;28;20053;-68
2022/08/21 04:48:56;;;;;;;6.07;1.80;;;;;;;;;;5051327;28;20045;-69
2022/08/21 04:51:32;;;;;;;3.25;1.63;;;;;;;;;;5050802;28;20049;-69
2022/08/21 04:54:14;;;;;;;7.93;1.80;;;;;;;;;;5068358;28;20449;-69
2022/08/21 04:56:45;;;;;;;;;;;;;;;;;;5072240;28;20064;-69
2022/08/21 04:59:20;;;;;;;3.55;2.00;;;;;;;;;;5071217;28;19931;-69
2022/08/21 05:01:46;;;;;;;2.03;1.80;;;;;;;;;;5056217;28;20507;-69
2022/08/21 05:04:15;;;;;;;7.15;2.20;;;;;;;;;;5070276;28;20106;-68
2022/08/21 05:06:46;;;;;;;5.40;2.00;;;;;;;;;;5071267;28;20068;-74
2022/08/21 05:09:14;;;;;;;6.47;1.80;;;;;;;;;;5071249;28;20052;-69
2022/08/21 05:11:42;;;;;;;5.75;2.15;;;;;;;;;;5065446;28;20060;-68
2022/08/21 05:14:08;;;;;;;4.40;2.03;;;;;;;;;;5061321;28;20048;-68
2022/08/21 05:16:34;;;;;;;5.00;1.90;;;;;;;;;;5058552;28;20482;-68
2022/08/21 05:18:59;;;;;;;2.60;2.05;;;;;;;;;;5050787;28;20124;-69
2022/08/21 05:21:25;;;;;;;2.25;1.85;;;;;;;;;;5051150;28;20045;-68
2022/08/21 05:23:50;;;;;;;5.05;1.95;;;;;;;;;;5057972;28;20052;-69
2022/08/21 05:26:15;;;;;;;4.88;1.67;;;;;;;;;;5070810;28;20056;-69
2022/08/21 05:28:41;;;;;;;3.85;1.50;;;;;;;;;;5070969;28;20444;-68
2022/08/21 05:31:06;;;;;;;2.15;1.30;;;;;;;;;;5061485;28;20064;-69
2022/08/21 05:33:32;;;;;;;2.83;1.30;;;;;;;;;;5049733;28;20552;-68
2022/08/21 05:35:57;;;;;;;2.15;1.13;;;;;;;;;;5067946;28;20056;-68
2022/08/21 05:38:25;;;;;;;1.65;1.15;;;;;;;;;;5070631;28;20041;-69
2022/08/21 05:40:51;;;;;;;2.75;0.93;;;;;;;;;;5070040;28;20075;-68
2022/08/21 05:43:16;;;;;;;1.95;1.00;;;;;;;;;;5070446;28;20403;-68
2022/08/21 05:45:42;;;;;;;2.20;1.08;;;;;;;;;;5057675;28;20051;-68
2022/08/21 05:48:09;;;;;;;0.80;0.80;;;;;;;;;;5060719;28;20056;-68
2022/08/21 05:50:37;;;;;;;1.58;1.08;;;;;;;;;;5070540;28;20076;-68
2022/08/21 05:53:02;;;;;;;1.73;0.90;;;;;;;;;;5069544;28;20064;-68
2022/08/21 05:55:28;;;;;;;1.30;0.88;;;;;;;;;;5065141;28;20048;-70
2022/08/21 05:57:54;;;;;;;4.32;1.02;;;;;;;;;;5066801;28;20048;-68
2022/08/21 06:00:19;;;;;;;1.20;0.88;;;;;;;;;;5068086;28;20082;-68
2022/08/21 06:02:45;;;;;;;2.78;0.90;;;;;;;;;;5049637;28;20081;-68
2022/08/21 06:05:10;;;;;;;1.20;1.00;;;;;;;;;;5050024;28;20064;-68
2022/08/21 06:07:35;;;;;;;2.55;0.80;;;;;;;;;;5049171;28;20045;-68
2022/08/21 06:10:02;;;;;;;3.90;1.38;;;;;;;;;;5066325;28;20070;-69
2022/08/21 06:12:27;;;;;;;1.90;0.98;;;;;;;;;;5069843;28;20048;-68
2022/08/21 06:14:52;;;;;;;1.50;0.88;;;;;;;;;;5069500;28;20111;-68
2022/08/21 06:17:18;;;;;;;0.82;0.82;;;;;;;;;;5050448;28;20052;-69
2022/08/21 06:19:44;;;;;;;1.10;1.00;;;;;;;;;;5065414;28;20044;-68
2022/08/21 06:22:09;;;;;;;6.55;1.00;;;;;;;;;;5069600;28;20403;-69
2022/08/21 06:24:35;;;;;;;0.95;0.85;;;;;;;;;;5070010;28;20045;-68
2022/08/21 06:27:05;;;;;;;1.70;0.80;;;;;;;;;;5069388;28;20055;-68
2022/08/21 06:29:32;;;;;;;1.92;1.08;;;;;;;;;;5062313;28;20142;-69
2022/08/21 06:31:57;;;;;;;1.33;0.90;;;;;;;;;;5054075;28;20040;-68
2022/08/21 06:34:23;;;;;;;1.73;1.00;;;;;;;;;;5049721;28;20619;-67
2022/08/21 06:36:48;;;;;;;0.73;0.73;;;;;;;;;;5049315;28;20049;-69
2022/08/21 06:39:14;;;;;;;1.10;1.00;;;;;;;;;;5048706;28;20128;-70
2022/08/21 06:41:39;;;;;;;1.40;1.00;;;;;;;;;;5056117;28;20542;-69
2022/08/21 06:44:05;;;;;;;3.22;0.88;;;;;;;;;;5068492;28;20502;-69
2022/08/21 06:46:30;;;;;;;1.48;1.00;;;;;;;;;;5057576;28;20056;-70
2022/08/21 06:48:57;;;;;;;3.40;1.00;;;;;;;;;;5047980;28;20114;-69
2022/08/21 06:51:25;;;;;;;1.35;1.17;;;;;;;;;;5048558;28;20072;-69
2022/08/21 06:53:51;;;;;;;4.80;1.20;;;;;;;;;;5065372;28;20048;-70
2022/08/21 06:56:16;;;;;;;1.85;1.13;;;;;;;;;;5069674;28;20054;-70
2022/08/21 06:58:42;;;;;;;2.33;1.10;;;;;;;;;;5069340;28;20044;-69
2022/08/21 07:01:07;;;;;;;3.42;1.10;;;;;;;;;;5058887;28;20037;-69
2022/08/21 07:03:36;;;;;;;3.03;1.10;;;;;;;;;;5053666;28;20046;-69
2022/08/21 07:06:02;;;;;;;3.97;1.38;;;;;;;;;;5068813;28;20052;-69
2022/08/21 07:08:28;;;;;;;2.88;1.10;;;;;;;;;;5068817;28;20132;-69
2022/08/21 07:10:56;;;;;;;1.42;1.05;;;;;;;;;;5068297;28;20131;-69
2022/08/21 07:13:22;;;;;;;3.38;1.55;;;;;;;;;;5061126;28;20521;-68
2022/08/21 07:15:47;;;;;;;2.90;1.20;;;;;;;;;;5062455;28;20072;-69
2022/08/21 07:18:13;;;;;;;2.05;1.30;;;;;;;;;;5052088;28;20411;-68
2022/08/21 07:20:39;;;;;;;1.83;1.33;;;;;;;;;;5053000;28;20048;-69
2022/08/21 07:23:09;;;;;;;5.35;1.27;;;;;;;;;;5051938;28;20457;-69
2022/08/21 07:25:35;;;;;;;3.22;1.20;;;;;;;;;;5065264;28;20142;-68
2022/08/21 07:28:00;;;;;;;2.55;1.70;;;;;;;;;;5072658;28;20125;-69
2022/08/21 07:30:27;;;;;;;1.65;1.55;;;;;;;;;;5069501;28;20446;-69
2022/08/21 07:32:52;;;;;;;7.47;1.58;;;;;;;;;;5051897;28;20082;-69
2022/08/21 07:35:19;;;;;;;1.90;1.70;;;;;;;;;;5051352;28;20044;-69
2022/08/21 07:37:45;;;;;;;5.78;1.70;;;;;;;;;;5067440;28;20055;-69
2022/08/21 07:40:11;;;;;;;5.25;2.05;;;;;;;;;;5072167;28;20421;-69
2022/08/21 07:42:46;;;;;;;2.85;1.75;;;;;;;;;;5072243;28;20061;-69
2022/08/21 07:45:12;;;;;;;2.53;1.20;;;;;;;;;;5068777;28;20048;-68
2022/08/21 07:47:38;;;;;;;6.85;1.63;;;;;;;;;;5053036;28;20048;-70
2022/08/21 07:50:05;;;;;;;3.00;1.60;;;;;;;;;;5072448;28;20469;-68
2022/08/21 07:52:31;;;;;;;2.00;1.55;;;;;;;;;;5071965;28;20502;-68
2022/08/21 07:54:56;;;;;;;4.07;1.50;;;;;;;;;;5071738;28;20075;-69
2022/08/21 07:57:22;;;;;;;5.20;1.80;;;;;;;;;;5064717;28;20037;-68
2022/08/21 07:59:47;;;;;;;4.55;1.83;;;;;;;;;;5072021;28;20406;-69
2022/08/21 08:02:28;;;;;;;1.90;1.70;;;;;;;;;;5054090;28;20064;-70
2022/08/21 08:04:54;;;;;;;4.03;1.65;;;;;;;;;;5051696;28;20047;-69
2022/08/21 08:07:19;;;;;;;2.17;1.50;;;;;;;;;;5051161;28;20403;-69
2022/08/21 08:09:45;;;;;;;2.45;2.00;;;;;;;;;;5067459;28;20052;-68
2022/08/21 08:12:11;;;;;;;2.00;1.77;;;;;;;;;;5071694;28;20044;-69
2022/08/21 08:14:36;;;;;;;2.25;1.50;;;;;;;;;;5072072;28;20052;-68
2022/08/21 08:17:02;;;;;;;2.58;1.52;;;;;;;;;;5054995;28;20045;-69
2022/08/21 08:19:28;;;;;;;3.45;1.80;;;;;;;;;;5050816;28;20060;-69
2022/08/21 08:21:54;;;;;;;2.38;1.80;;;;;;;;;;5068280;28;20044;-69
2022/08/21 08:24:19;;;;;;;3.92;2.03;;;;;;;;;;5071529;28;20056;-68
2022/08/21 08:26:45;;;;;;;4.35;2.25;;;;;;;;;;5071175;28;20082;-69
2022/08/21 08:29:10;;;;;;;2.40;1.90;;;;;;;;;;5069549;28;20048;-69
2022/08/21 08:31:36;;;;;;;3.00;1.90;;;;;;;;;;5053070;28;20498;-69
2022/08/21 08:34:01;;;;;;;3.22;1.90;;;;;;;;;;5069129;28;20201;-69
2022/08/21 08:36:36;;;;;;;3.10;1.88;;;;;;;;;;5071540;28;20055;-69
2022/08/21 08:39:04;;;;;;;2.30;1.90;;;;;;;;;;5070787;28;20552;-69
2022/08/21 08:41:31;;;;;;;2.55;2.13;;;;;;;;;;5064160;28;20147;-69
2022/08/21 08:44:04;;;;;;;2.40;1.80;;;;;;;;;;5070226;28;20117;-69
2022/08/21 08:46:43;;;;;;;2.58;1.85;;;;;;;;;;5059398;28;20172;-69
2022/08/21 08:49:15;;;;;;;2.45;1.90;;;;;;;;;;5050634;28;20382;-69
2022/08/21 08:51:55;;;;;;;5.15;2.20;;;;;;;;;;5050314;28;20041;-69
2022/08/21 08:54:32;;;;;;;2.03;1.90;;;;;;;;;;5055382;28;20109;-70
2022/08/21 08:57:00;;;;;;;2.75;2.10;;;;;;;;;;5052637;28;20063;-68
2022/08/21 08:59:32;;;;;;;1.98;1.77;;;;;;;;;;5069530;28;20143;-69
2022/08/21 09:01:57;;;;;;;6.00;2.22;;;;;;;;;;5055444;28;20490;-69
2022/08/21 09:04:27;;;;;;;2.47;2.00;;;;;;;;;;5062110;28;20051;-69
2022/08/21 09:07:01;;;;;;;2.38;2.17;;;;;;;;;;5070283;28;20495;-69
2022/08/21 09:09:44;;;;;;;2.13;1.90;;;;;;;;;;5070951;28;20135;-69
2022/08/21 09:12:24;;;;;;;2.45;2.25;;;;;;;;;;5070727;28;20074;-69
2022/08/21 09:15:17;;;;;;;4.78;2.15;;;;;;;;;;5062654;28;20048;-68
2022/08/21 09:18:20;;;;;;;4.80;2.28;;;;;;;;;;5050725;28;20423;-69
2022/08/21 09:20:57;;;;;;;4.50;2.22;;;;;;;;;;5018432;28;20131;-69
2022/08/21 09:23:48;;;;;;;2.67;2.05;;;;;;;;;;5050597;28;20041;-68
2022/08/21 09:26:17;;;;;;;2.55;1.98;;;;;;;;;;5060963;28;20052;-69
2022/08/21 09:28:43;;;;;;;2.47;2.28;;;;;;;;;;5070581;28;20040;-68
2022/08/21 09:31:22;;;;;;;2.10;2.00;;;;;;;;;;5061364;28;20156;-69
2022/08/21 09:33:48;;;;;;;3.53;2.15;;;;;;;;;;5050421;28;20041;-69
2022/08/21 09:36:26;;;;;;;2.42;2.22;;;;;;;;;;5051264;28;20040;-69
2022/08/21 09:38:54;;;;;;;3.78;2.17;;;;;;;;;;5067918;28;20049;-69
2022/08/21 09:41:28;;;;;;;2.35;2.08;;;;;;;;;;5069304;28;20138;-69
2022/08/21 09:43:54;;;;;;;3.97;2.13;;;;;;;;;;5069000;28;20048;-69
2022/08/21 09:46:25;;;;;;;3.00;2.20;;;;;;;;;;5058721;28;20692;-68
2022/08/21 09:48:53;;;;;;;2.47;1.90;;;;;;;;;;5065912;28;20436;-68
2022/08/21 09:51:29;;;;;;;3.35;2.40;;;;;;;;;;5030333;28;20143;-68
2022/08/21 09:54:09;;;;;;;2.88;2.63;;;;;;;;;;5030069;28;20049;-69
2022/08/21 09:59:31;;;;;;;2.70;1.92;;;;;;;;;;5057240;28;20059;-68
2022/08/21 10:02:01;;;;;;;2.53;1.80;;;;;;;;;;5054348;28;20135;-69
2022/08/21 10:04:35;;;;;;;2.17;1.98;;;;;;;;;;5049704;28;20045;-68
2022/08/21 10:07:13;;;;;;;2.85;1.92;;;;;;;;;;5049473;28;20037;-69
2022/08/21 10:09:39;;;;;;;3.50;2.15;;;;;;;;;;5048819;28;20075;-68
2022/08/21 10:12:20;;;;;;;4.82;2.10;;;;;;;;;;5067714;28;20052;-69
2022/08/21 10:14:48;;;;;;;;;;;;;;;;;;5069624;28;20123;-69
2022/08/21 10:17:20;;;;;;;5.00;2.15;;;;;;;;;;5051729;28;19920;-69
2022/08/21 10:20:07;;;;;;;2.63;2.20;;;;;;;;;;5048680;28;20127;-68
2022/08/21 10:23:18;;;;;;;1.75;1.65;;;;;;;;;;5057114;28;20036;-69
2022/08/21 10:25:51;;;;;;;2.47;1.60;;;;;;;;;;5067454;28;20064;-68
2022/08/21 10:28:32;;;;;;;2.75;1.90;;;;;;;;;;5069463;28;20044;-69
2022/08/21 10:31:45;;;;;;;3.80;1.90;;;;;;;;;;5061324;28;20073;-68
2022/08/21 10:34:15;;;;;;;2.05;1.70;;;;;;;;;;5007076;28;20104;-69
2022/08/21 10:36:57;;;;;;;1.70;1.60;;;;;;;;;;5069562;28;20135;-68
2022/08/21 10:39:34;;;;;;;2.08;1.88;;;;;;;;;;5067283;28;20198;-68
2022/08/21 10:42:08;;;;;;;3.05;1.90;;;;;;;;;;5061888;28;20044;-68
2022/08/21 10:45:00;;;;;;;4.80;1.92;;;;;;;;;;5067970;28;20036;-68
2022/08/21 10:47:41;;;;;;;3.30;1.58;;;;;;;;;;5024239;28;20125;-68
2022/08/21 10:50:15;;;;;;;2.97;1.90;;;;;;;;;;5049374;28;20052;-68
2022/08/21 10:53:25;;;;;;;2.75;1.65;;;;;;;;;;5048044;28;20056;-68
2022/08/21 10:56:08;;;;;;;3.35;1.60;;;;;;;;;;5010532;28;20069;-68
2022/08/21 10:58:45;;;;;;;1.60;1.50;;;;;;;;;;5028912;28;20045;-68
2022/08/21 11:01:17;;;;;;;4.75;1.73;;;;;;;;;;5028822;28;20137;-68
2022/08/21 11:04:14;;;;;;;3.75;1.65;;;;;;;;;;5033385;28;20098;-68
2022/08/21 11:06:52;;;;;;;3.55;1.70;;;;;;;;;;5058500;28;20072;-68
2022/08/21 11:09:25;;;;;;;2.85;1.50;;;;;;;;;;5050478;28;20129;-68
2022/08/21 11:12:11;;;;;;;4.50;1.45;;;;;;;;;;5068993;28;20071;-68
2022/08/21 11:14:55;;;;;;;2.40;1.48;;;;;;;;;;5063771;28;20075;-68
2022/08/21 11:17:28;;;;;;;1.70;1.60;;;;;;;;;;5057305;28;20125;-68
2022/08/21 11:20:01;;;;;;;2.58;1.73;;;;;;;;;;5069065;28;20048;-68
2022/08/21 11:22:50;;;;;;;1.92;1.80;;;;;;;;;;5069078;28;20044;-68
2022/08/21 11:25:31;;;;;;;6.07;1.58;;;;;;;;;;5047753;28;20426;-68
2022/08/21 11:28:02;;;;;;;1.80;1.45;;;;;;;;;;5057311;28;20053;-68
2022/08/21 11:30:37;;;;;;;4.28;1.60;;;;;;;;;;5049269;28;20040;-68
2022/08/21 11:33:32;;;;;;;2.47;1.70;;;;;;;;;;5048153;28;20498;-68
2022/08/21 11:36:07;;;;;;;1.55;1.45;;;;;;;;;;5049244;28;20036;-68
2022/08/21 11:38:41;;;;;;;3.03;1.70;;;;;;;;;;5062333;28;20045;-68
2022/08/21 11:41:09;;;;;;;2.08;1.50;;;;;;;;;;5067228;28;20473;-68
2022/08/21 11:43:43;;;;;;;2.22;1.80;;;;;;;;;;5068399;28;20070;-68
2022/08/21 11:46:12;;;;;;;3.85;1.85;;;;;;;;;;5060024;28;20044;-67
2022/08/21 11:49:02;;;;;;;1.85;1.75;;;;;;;;;;5041277;28;20044;-67
2022/08/21 11:51:36;;;;;;;2.22;1.92;;;;;;;;;;5046720;28;20133;-66
2022/08/21 11:54:13;;;;;;;2.10;1.90;;;;;;;;;;5049011;28;20056;-67
2022/08/21 11:56:45;;;;;;;1.95;1.70;;;;;;;;;;5049097;28;20052;-67
2022/08/21 11:59:39;;;;;;;3.75;2.10;;;;;;;;;;5049980;28;20517;-67
2022/08/21 12:02:14;;;;;;;2.00;1.77;;;;;;;;;;5055571;28;20040;-67
2022/08/21 12:04:53;;;;;;;2.00;1.80;;;;;;;;;;5070863;28;20193;-67
2022/08/21 12:08:00;;;;;;;1.80;1.70;;;;;;;;;;5070302;28;20052;-68
2022/08/21 12:10:34;;;;;;;1.85;1.67;;;;;;;;;;5021355;28;20250;-67
2022/08/21 12:13:21;;;;;;;1.85;1.60;;;;;;;;;;5069223;28;20045;-67
2022/08/21 12:15:46;;;;;;;3.42;1.45;;;;;;;;;;5066592;28;20045;-67
2022/08/21 12:18:30;;;;;;;1.98;1.83;;;;;;;;;;5052310;28;20522;-67
2022/08/21 12:21:23;;;;;;;3.17;1.58;;;;;;;;;;5051406;28;20594;-67
2022/08/21 12:24:02;;;;;;;2.17;1.60;;;;;;;;;;5071761;28;20048;-67
2022/08/21 12:26:47;;;;;;;2.05;1.38;;;;;;;;;;5072351;28;20044;-67
2022/08/21 12:29:23;;;;;;;3.17;1.45;;;;;;;;;;5071903;28;20076;-67
2022/08/21 12:32:24;;;;;;;1.90;1.38;;;;;;;;;;5056702;28;20047;-67
2022/08/21 12:34:57;;;;;;;2.33;1.50;;;;;;;;;;5063323;28;20052;-67
2022/08/21 12:37:25;;;;;;;2.05;1.60;;;;;;;;;;5017475;28;20080;-69
2022/08/21 12:39:54;;;;;;;3.45;1.75;;;;;;;;;;5051959;28;20057;-67
2022/08/21 12:42:37;;;;;;;2.63;1.50;;;;;;;;;;5050836;28;20041;-67
2022/08/21 12:45:11;;;;;;;3.15;1.73;;;;;;;;;;5069187;28;20088;-67
2022/08/21 12:47:48;;;;;;;1.60;1.50;;;;;;;;;;5031757;28;20596;-68
2022/08/21 12:50:21;;;;;;;2.42;1.58;;;;;;;;;;5031893;28;20056;-68
2022/08/21 12:53:19;;;;;;;2.10;1.60;;;;;;;;;;5034531;28;20043;-67
2022/08/21 12:55:45;;;;;;;2.35;1.48;;;;;;;;;;5021660;28;20052;-67
2022/08/21 12:58:19;;;;;;;1.60;1.50;;;;;;;;;;5071593;28;20052;-70
2022/08/21 13:00:50;;;;;;;7.10;1.88;;;;;;;;;;5065859;28;20065;-67
2022/08/21 13:03:15;;;;;;;;;;;;;;;;;;5050581;28;20037;-67
2022/08/21 13:05:41;;;;;;;6.80;1.55;;;;;;;;;;5057914;28;19916;-67
2022/08/21 13:08:10;;;;;;;2.45;1.40;;;;;;;;;;5052880;28;20095;-67
2022/08/21 13:10:38;;;;;;;3.45;1.70;;;;;;;;;;5051272;28;20128;-67
2022/08/21 13:13:06;;;;;;;1.77;1.40;;;;;;;;;;5050579;28;20056;-66
2022/08/21 13:15:35;;;;;;;1.88;1.67;;;;;;;;;;5051848;28;20041;-67
2022/08/21 13:18:02;;;;;;;2.58;1.50;;;;;;;;;;5060268;28;20544;-68
2022/08/21 13:20:34;;;;;;;3.40;1.60;;;;;;;;;;5071376;28;20080;-67
2022/08/21 13:23:01;;;;;;;2.22;1.90;;;;;;;;;;5070349;28;20049;-66
2022/08/21 13:25:34;;;;;;;5.38;1.45;;;;;;;;;;5067303;28;20049;-68
2022/08/21 13:28:08;;;;;;;1.65;1.55;;;;;;;;;;5058963;28;20094;-68
2022/08/21 13:30:38;;;;;;;2.97;1.33;;;;;;;;;;5050920;28;20048;-67
2022/08/21 13:33:05;;;;;;;1.75;1.50;;;;;;;;;;5050355;28;20040;-68
2022/08/21 13:36:00;;;;;;;1.88;1.70;;;;;;;;;;5050995;28;20045;-68
2022/08/21 13:38:29;;;;;;;3.30;1.55;;;;;;;;;;5060844;28;20052;-68
2022/08/21 13:40:57;;;;;;;2.83;1.70;;;;;;;;;;5036652;28;20051;-68
2022/08/21 13:43:30;;;;;;;5.55;1.80;;;;;;;;;;5029939;28;20411;-68
2022/08/21 13:45:56;;;;;;;2.17;1.75;;;;;;;;;;5030736;28;20041;-68
2022/08/21 13:48:27;;;;;;;3.80;1.67;;;;;;;;;;5044900;28;20286;-68
2022/08/21 13:50:53;;;;;;;1.70;1.60;;;;;;;;;;5069886;28;20127;-67
2022/08/21 13:53:29;;;;;;;3.13;1.60;;;;;;;;;;5070036;28;20052;-67
2022/08/21 13:55:55;;;;;;;2.05;1.40;;;;;;;;;;5070475;28;20049;-68
2022/08/21 13:58:33;;;;;;;2.30;1.75;;;;;;;;;;5067469;28;20051;-67
2022/08/21 14:01:00;;;;;;;4.50;1.80;;;;;;;;;;5045194;28;20053;-68
2022/08/21 14:03:42;;;;;;;2.78;1.88;;;;;;;;;;5070144;28;20099;-67
2022/08/21 14:06:14;;;;;;;1.90;1.80;;;;;;;;;;5070107;28;20123;-68
2022/08/21 14:08:43;;;;;;;2.15;1.83;;;;;;;;;;5070013;28;20040;-67
2022/08/21 14:11:13;;;;;;;4.38;1.70;;;;;;;;;;5057475;28;20063;-68
2022/08/21 14:13:40;;;;;;;1.90;1.55;;;;;;;;;;5058447;28;20128;-68
2022/08/21 14:16:27;;;;;;;3.83;1.50;;;;;;;;;;5061328;28;20071;-67
2022/08/21 14:18:52;;;;;;;2.65;1.60;;;;;;;;;;5048986;28;20059;-67
2022/08/21 14:21:38;;;;;;;1.83;1.35;;;;;;;;;;5049004;28;20045;-68
2022/08/21 14:24:08;;;;;;;1.83;1.63;;;;;;;;;;5067384;28;20059;-67
2022/08/21 14:26:37;;;;;;;4.30;1.65;;;;;;;;;;5069281;28;20044;-68
2022/08/21 14:29:08;;;;;;;1.88;1.40;;;;;;;;;;5068960;28;20072;-67
2022/08/21 14:31:34;;;;;;;1.92;1.65;;;;;;;;;;5056299;28;20033;-68
2022/08/21 14:34:00;;;;;;;2.00;1.50;;;;;;;;;;5066787;28;20578;-68
2022/08/21 14:36:26;;;;;;;2.38;1.90;;;;;;;;;;5069851;28;20044;-67
2022/08/21 14:38:52;;;;;;;2.22;2.03;;;;;;;;;;5068941;28;20375;-67
2022/08/21 14:41:22;;;;;;;2.72;2.00;;;;;;;;;;5066941;28;20056;-67
2022/08/21 14:43:49;;;;;;;2.65;2.20;;;;;;;;;;5041865;28;20396;-67
2022/08/21 14:46:20;;;;;;;6.93;2.15;;;;;;;;;;5058631;28;20952;-67
2022/08/21 14:48:46;;;;;;;3.60;1.85;;;;;;;;;;5049230;28;20052;-69
2022/08/21 14:51:13;;;;;;;7.30;1.85;;;;;;;;;;5049058;28;20060;-67
2022/08/21 14:53:39;;;;;;;2.13;1.92;;;;;;;;;;5048534;28;20453;-67
2022/08/21 14:56:05;;;;;;;2.58;1.85;;;;;;;;;;5067436;28;20049;-70
2022/08/21 14:58:31;;;;;;;5.40;1.50;;;;;;;;;;5069689;28;20044;-67
2022/08/21 15:00:57;;;;;;;2.10;1.65;;;;;;;;;;5061654;28;20123;-66
2022/08/21 15:03:24;;;;;;;3.22;1.70;;;;;;;;;;5048797;28;20045;-67